createdAt,value
2023-02-26T00:01:48.212Z,47.40
2023-02-26T00:04:16.642Z,47.92
2023-02-26T00:06:55.528Z,47.39
2023-02-26T00:09:26.202Z,47.33
2023-02-26T00:11:55.211Z,47.12
2023-02-26T00:14:23.950Z,47.45
2023-02-26T00:17:16.336Z,47.28
2023-02-26T00:19:44.857Z,47.10
2023-02-26T00:22:14.787Z,46.45
2023-02-26T00:24:43.235Z,46.87
2023-02-26T00:27:13.442Z,46.68
2023-02-26T00:29:42.014Z,47.13
2023-02-26T00:32:11.451Z,47.68
2023-02-26T00:34:41.357Z,46.76
2023-02-26T00:37:33.183Z,47.43
2023-02-26T00:40:31.073Z,48.06
2023-02-26T00:42:59.568Z,47.51
2023-02-26T00:45:28.129Z,48.04
2023-02-26T00:48:28.669Z,48.11
2023-02-26T00:51:19.943Z,48.50
2023-02-26T00:53:57.966Z,48.44
2023-02-26T00:56:26.461Z,48.50
2023-02-26T00:58:54.814Z,48.65
2023-02-26T01:01:23.079Z,48.98
2023-02-26T01:03:51.611Z,49.11
2023-02-26T01:06:22.993Z,49.16
2023-02-26T01:09:06.537Z,49.42
2023-02-26T01:11:37.333Z,49.32
2023-02-26T01:14:06.719Z,49.63
2023-02-26T01:17:08.519Z,49.68
2023-02-26T01:19:50.370Z,50.17
2023-02-26T01:22:32.640Z,50.45
2023-02-26T01:25:12.664Z,51.00
2023-02-26T01:27:42.062Z,51.36
2023-02-26T01:30:11.048Z,51.70
2023-02-26T01:32:56.645Z,51.91
2023-02-26T01:35:37.177Z,52.38
2023-02-26T01:38:10.500Z,52.85
2023-02-26T01:41:04.305Z,53.11
2023-02-26T01:43:50.866Z,53.38
2023-02-26T01:46:41.131Z,54.09
2023-02-26T01:49:16.097Z,54.31
2023-02-26T01:51:51.266Z,54.28
2023-02-26T01:54:44.291Z,54.41
2023-02-26T01:57:16.709Z,54.54
2023-02-26T01:59:51.242Z,55.02
2023-02-26T02:02:23.874Z,55.06
2023-02-26T02:04:52.517Z,55.46
2023-02-26T02:07:21.541Z,55.57
2023-02-26T02:09:50.173Z,55.53
2023-02-26T02:12:42.960Z,55.76
2023-02-26T02:15:40.194Z,55.87
2023-02-26T02:18:28.791Z,56.09
2023-02-26T02:21:55.676Z,56.50
2023-02-26T02:25:14.670Z,56.85
2023-02-26T02:28:15.080Z,56.65
2023-02-26T02:31:36.729Z,57.00
2023-02-26T02:34:37.079Z,56.94
2023-02-26T02:37:08.313Z,56.90
2023-02-26T02:39:44.681Z,56.71
2023-02-26T02:42:15.674Z,56.86
2023-02-26T02:44:50.780Z,56.65
2023-02-26T02:47:22.398Z,57.17
2023-02-26T02:50:03.920Z,56.96
2023-02-26T02:52:55.831Z,56.82
2023-02-26T02:55:33.633Z,56.82
2023-02-26T02:58:09.449Z,56.79
2023-02-26T03:00:48.305Z,56.69
2023-02-26T03:03:48.119Z,56.59
2023-02-26T03:06:16.618Z,56.63
2023-02-26T03:08:50.020Z,56.54
2023-02-26T03:11:18.271Z,56.66
2023-02-26T03:13:48.420Z,56.16
2023-02-26T03:16:54.963Z,56.91
2023-02-26T03:19:51.548Z,56.96
2023-02-26T03:22:44.504Z,57.14
2023-02-26T03:25:24.408Z,57.77
2023-02-26T03:28:16.505Z,57.43
2023-02-26T03:31:07.223Z,57.23
2023-02-26T03:33:47.307Z,57.15
2023-02-26T03:36:38.763Z,56.88
2023-02-26T03:39:31.322Z,56.89
2023-02-26T03:42:10.959Z,56.74
2023-02-26T03:44:45.444Z,56.96
2023-02-26T03:47:16.893Z,56.59
2023-02-26T03:49:56.556Z,56.63
2023-02-26T03:52:28.150Z,56.37
2023-02-26T03:55:11.773Z,56.09
2023-02-26T03:57:40.660Z,56.26
2023-02-26T04:00:11.308Z,56.34
2023-02-26T04:02:56.858Z,56.23
2023-02-26T04:05:35.029Z,56.25
2023-02-26T04:08:03.962Z,56.42
2023-02-26T04:10:55.999Z,56.40
2023-02-26T04:13:24.290Z,56.46
2023-02-26T04:15:52.637Z,56.44
2023-02-26T04:18:21.343Z,56.55
2023-02-26T04:20:50.652Z,56.23
2023-02-26T04:23:20.300Z,56.42
2023-02-26T04:25:48.572Z,56.42
2023-02-26T04:28:17.020Z,56.66
2023-02-26T04:30:45.793Z,56.56
2023-02-26T04:33:15.060Z,56.26
2023-02-26T04:35:43.792Z,55.96
2023-02-26T04:38:12.066Z,55.99
2023-02-26T04:40:40.296Z,56.37
2023-02-26T04:43:08.578Z,56.29
2023-02-26T04:45:36.860Z,56.36
2023-02-26T04:48:05.154Z,56.42
2023-02-26T04:50:33.427Z,56.03
2023-02-26T04:53:01.647Z,56.29
2023-02-26T04:55:29.911Z,56.45
2023-02-26T04:57:58.116Z,56.35
2023-02-26T05:00:26.677Z,56.33
2023-02-26T05:02:55.175Z,56.21
2023-02-26T05:05:23.467Z,56.26
2023-02-26T05:07:54.611Z,56.47
2023-02-26T05:10:24.032Z,56.58
2023-02-26T05:12:52.396Z,56.35
2023-02-26T05:15:20.989Z,56.29
2023-02-26T05:17:49.522Z,56.43
2023-02-26T05:20:18.041Z,56.09
2023-02-26T05:22:46.316Z,55.97
2023-02-26T05:25:14.868Z,56.19
2023-02-26T05:27:43.593Z,55.81
2023-02-26T05:30:15.341Z,56.20
2023-02-26T05:32:44.209Z,55.97
2023-02-26T05:35:13.045Z,56.12
2023-02-26T05:37:41.506Z,56.29
2023-02-26T05:40:11.831Z,56.16
2023-02-26T05:42:41.080Z,56.30
2023-02-26T05:45:09.603Z,56.11
2023-02-26T05:47:38.414Z,56.03
2023-02-26T05:50:08.116Z,55.93
2023-02-26T05:52:36.531Z,56.38
2023-02-26T05:55:05.569Z,56.59
2023-02-26T05:57:33.813Z,56.56
2023-02-26T06:00:02.024Z,56.10
2023-02-26T06:02:30.287Z,56.32
2023-02-26T06:04:58.481Z,56.29
2023-02-26T06:07:26.719Z,56.38
2023-02-26T06:09:54.943Z,56.33
2023-02-26T06:12:23.165Z,56.34
2023-02-26T06:14:51.504Z,56.56
2023-02-26T06:17:19.694Z,56.21
2023-02-26T06:19:47.949Z,56.30
2023-02-26T06:22:16.189Z,56.48
2023-02-26T06:24:44.680Z,56.42
2023-02-26T06:27:13.027Z,56.50
2023-02-26T06:29:41.610Z,56.07
2023-02-26T06:32:10.061Z,56.50
2023-02-26T06:34:38.363Z,56.52
2023-02-26T06:37:06.975Z,56.87
2023-02-26T06:39:36.032Z,56.76
2023-02-26T06:42:04.256Z,56.75
2023-02-26T06:44:32.717Z,56.54
2023-02-26T06:47:01.028Z,56.61
2023-02-26T06:49:29.259Z,57.02
2023-02-26T06:51:57.625Z,56.97
2023-02-26T06:54:25.864Z,57.26
2023-02-26T06:56:58.456Z,57.34
2023-02-26T06:59:26.721Z,57.07
2023-02-26T07:01:54.936Z,57.38
2023-02-26T07:04:23.164Z,57.21
2023-02-26T07:06:51.468Z,57.35
2023-02-26T07:09:22.483Z,57.47
2023-02-26T07:11:50.845Z,57.59
2023-02-26T07:14:19.129Z,57.72
2023-02-26T07:16:47.613Z,57.65
2023-02-26T07:19:16.278Z,57.73
2023-02-26T07:21:44.556Z,57.90
2023-02-26T07:24:12.774Z,57.84
2023-02-26T07:26:41.052Z,58.06
2023-02-26T07:29:09.583Z,58.13
2023-02-26T07:31:38.001Z,58.11
2023-02-26T07:34:06.342Z,58.31
2023-02-26T07:36:34.558Z,58.44
2023-02-26T07:39:02.762Z,58.53
2023-02-26T07:41:30.960Z,58.40
2023-02-26T07:43:59.238Z,58.04
2023-02-26T07:46:27.819Z,58.21
2023-02-26T07:48:56.274Z,58.19
2023-02-26T07:51:25.025Z,57.83
2023-02-26T07:53:53.434Z,58.15
2023-02-26T07:56:21.645Z,57.82
2023-02-26T07:58:50.248Z,57.92
2023-02-26T08:01:18.495Z,57.67
2023-02-26T08:03:46.740Z,57.67
2023-02-26T08:06:15.186Z,57.71
2023-02-26T08:08:44.157Z,57.98
2023-02-26T08:11:12.419Z,57.92
2023-02-26T08:13:40.651Z,58.19
2023-02-26T08:16:08.945Z,58.07
2023-02-26T08:18:38.058Z,58.38
2023-02-26T08:21:07.075Z,58.60
2023-02-26T08:23:35.469Z,58.23
2023-02-26T08:26:09.364Z,58.74
2023-02-26T08:28:38.800Z,58.79
2023-02-26T08:31:07.492Z,59.02
2023-02-26T08:33:35.814Z,59.09
2023-02-26T08:36:04.047Z,58.95
2023-02-26T08:38:33.036Z,59.07
2023-02-26T08:41:01.891Z,59.14
2023-02-26T08:43:30.789Z,59.18
2023-02-26T08:46:00.212Z,59.15
2023-02-26T08:48:28.476Z,59.44
2023-02-26T08:50:56.710Z,59.19
2023-02-26T08:53:25.141Z,59.32
2023-02-26T08:55:54.509Z,59.39
2023-02-26T08:58:22.940Z,59.36
2023-02-26T09:00:51.763Z,59.77
2023-02-26T09:03:20.007Z,59.30
2023-02-26T09:05:48.335Z,59.63
2023-02-26T09:08:16.908Z,59.44
2023-02-26T09:10:45.652Z,59.83
2023-02-26T09:13:14.132Z,59.50
2023-02-26T09:15:42.912Z,59.51
2023-02-26T09:18:16.205Z,59.83
2023-02-26T09:20:45.991Z,60.07
2023-02-26T09:23:14.447Z,59.63
2023-02-26T09:25:42.646Z,59.64
2023-02-26T09:28:10.968Z,59.55
2023-02-26T09:30:39.252Z,60.30
2023-02-26T09:33:07.532Z,60.23
2023-02-26T09:35:35.743Z,60.31
2023-02-26T09:38:04.925Z,60.41
2023-02-26T09:41:18.478Z,60.39
2023-02-26T09:44:01.478Z,60.94
2023-02-26T09:46:56.491Z,60.67
2023-02-26T09:49:34.209Z,60.71
2023-02-26T09:52:14.333Z,60.78
2023-02-26T09:54:48.136Z,60.50
2023-02-26T09:57:45.035Z,60.89
2023-02-26T10:00:43.506Z,60.59
2023-02-26T10:03:49.307Z,60.95
2023-02-26T10:06:26.434Z,61.05
2023-02-26T10:09:34.533Z,61.22
2023-02-26T10:12:18.259Z,60.80
2023-02-26T10:15:02.867Z,60.96
2023-02-26T10:18:15.719Z,61.27
2023-02-26T10:21:04.939Z,60.98
2023-02-26T10:23:44.692Z,60.58
2023-02-26T10:26:26.400Z,60.54
2023-02-26T10:29:34.680Z,60.75
2023-02-26T10:32:30.623Z,60.92
2023-02-26T10:35:09.993Z,60.95
2023-02-26T10:37:57.955Z,60.71
2023-02-26T10:40:38.527Z,60.61
2023-02-26T10:43:30.932Z,60.66
2023-02-26T10:46:43.469Z,61.02
2023-02-26T10:49:48.933Z,61.15
2023-02-26T10:52:20.997Z,60.96
2023-02-26T10:55:25.245Z,61.05
2023-02-26T10:58:17.329Z,61.20
2023-02-26T11:00:48.389Z,60.87
2023-02-26T11:03:23.588Z,61.18
2023-02-26T11:05:51.878Z,61.23
2023-02-26T11:08:33.404Z,61.08
2023-02-26T11:11:05.445Z,61.36
2023-02-26T11:13:36.116Z,61.41
2023-02-26T11:16:10.343Z,61.15
2023-02-26T11:18:45.255Z,61.78
2023-02-26T11:21:29.758Z,61.81
2023-02-26T11:24:06.298Z,61.78
2023-02-26T11:26:37.873Z,61.26
2023-02-26T11:29:07.321Z,61.32
2023-02-26T11:31:35.544Z,61.72
2023-02-26T11:34:05.890Z,61.31
2023-02-26T11:36:38.379Z,61.22
2023-02-26T11:39:16.538Z,61.35
2023-02-26T11:41:47.936Z,61.46
2023-02-26T11:44:35.662Z,61.32
2023-02-26T11:47:14.902Z,61.48
2023-02-26T11:49:47.053Z,61.79
2023-02-26T11:52:33.731Z,62.01
2023-02-26T11:55:05.101Z,61.48
2023-02-26T11:57:34.941Z,61.40
2023-02-26T12:00:25.808Z,62.13
2023-02-26T12:03:02.938Z,61.92
2023-02-26T12:05:32.221Z,62.12
2023-02-26T12:08:00.551Z,61.79
2023-02-26T12:10:49.776Z,62.15
2023-02-26T12:13:46.096Z,62.18
2023-02-26T12:16:15.261Z,62.60
2023-02-26T12:18:49.485Z,62.24
2023-02-26T12:21:48.166Z,62.05
2023-02-26T12:24:37.700Z,62.06
2023-02-26T12:27:20.910Z,62.21
2023-02-26T12:30:23.113Z,62.29
2023-02-26T12:32:58.648Z,62.06
2023-02-26T12:35:59.069Z,62.68
2023-02-26T12:38:37.120Z,62.43
2023-02-26T12:41:41.480Z,62.21
2023-02-26T12:44:22.416Z,62.34
2023-02-26T12:47:08.021Z,62.65
2023-02-26T12:50:08.347Z,62.17
2023-02-26T12:52:48.334Z,62.65
2023-02-26T12:55:40.947Z,62.78
2023-02-26T12:58:16.647Z,62.57
2023-02-26T13:01:21.513Z,62.68
2023-02-26T13:04:18.393Z,62.27
2023-02-26T13:06:59.921Z,62.91
2023-02-26T13:10:02.451Z,62.77
2023-02-26T13:13:41.485Z,62.82
2023-02-26T13:16:43.387Z,62.51
2023-02-26T13:19:30.558Z,62.56
2023-02-26T13:22:12.869Z,62.50
2023-02-26T13:24:46.201Z,62.70
2023-02-26T13:27:17.584Z,62.81
2023-02-26T13:30:15.466Z,62.58
2023-02-26T13:32:45.660Z,62.86
2023-02-26T13:35:39.193Z,62.81
2023-02-26T13:38:23.068Z,62.80
2023-02-26T13:40:54.225Z,62.95
2023-02-26T13:43:43.584Z,62.10
2023-02-26T13:46:41.268Z,62.55
2023-02-26T13:49:17.992Z,62.67
2023-02-26T13:51:49.993Z,62.68
2023-02-26T13:54:18.184Z,62.53
2023-02-26T13:57:26.665Z,62.69
2023-02-26T14:00:13.998Z,62.73
2023-02-26T14:02:46.760Z,62.72
2023-02-26T14:05:53.416Z,62.62
2023-02-26T14:08:42.983Z,62.49
2023-02-26T14:11:38.646Z,62.85
2023-02-26T14:14:27.485Z,62.92
2023-02-26T14:17:04.589Z,62.60
2023-02-26T14:19:45.217Z,62.79
2023-02-26T14:22:25.097Z,62.63
2023-02-26T14:25:00.208Z,62.67
2023-02-26T14:27:31.059Z,62.46
2023-02-26T14:30:11.432Z,62.82
2023-02-26T14:33:01.101Z,62.55
2023-02-26T14:35:41.543Z,62.53
2023-02-26T14:38:35.169Z,62.29
2023-02-26T14:41:09.994Z,62.57
2023-02-26T14:43:46.100Z,62.27
2023-02-26T14:46:14.616Z,62.82
2023-02-26T14:48:43.563Z,62.60
2023-02-26T14:51:25.591Z,62.66
2023-02-26T14:54:11.612Z,62.29
2023-02-26T14:56:49.069Z,62.31
2023-02-26T14:59:47.573Z,62.10
2023-02-26T15:02:33.723Z,62.62
2023-02-26T15:05:35.541Z,62.63
2023-02-26T15:08:24.500Z,62.14
2023-02-26T15:11:23.790Z,62.40
2023-02-26T15:14:27.129Z,62.34
2023-02-26T15:16:56.059Z,62.44
2023-02-26T15:19:33.297Z,62.29
2023-02-26T15:22:27.114Z,62.53
2023-02-26T15:24:55.510Z,62.71
2023-02-26T15:27:23.917Z,62.47
2023-02-26T15:29:53.872Z,62.54
2023-02-26T15:32:32.659Z,62.46
2023-02-26T15:35:17.791Z,62.60
2023-02-26T15:38:02.003Z,62.77
2023-02-26T15:40:40.972Z,62.36
2023-02-26T15:43:11.261Z,62.38
2023-02-26T15:45:40.900Z,62.33
2023-02-26T15:48:17.957Z,62.36
2023-02-26T15:50:50.964Z,62.42
2023-02-26T15:53:43.477Z,62.52
2023-02-26T15:56:25.471Z,62.29
2023-02-26T15:58:59.392Z,62.48
2023-02-26T16:01:29.620Z,62.33
2023-02-26T16:04:04.377Z,62.45
2023-02-26T16:06:36.769Z,62.23
2023-02-26T16:09:07.821Z,62.27
2023-02-26T16:11:43.162Z,62.32
2023-02-26T16:14:23.822Z,62.45
2023-02-26T16:16:55.397Z,62.40
2023-02-26T16:19:45.885Z,62.44
2023-02-26T16:22:38.625Z,61.84
2023-02-26T16:25:18.075Z,62.47
2023-02-26T16:27:53.603Z,62.27
2023-02-26T16:30:28.104Z,62.16
2023-02-26T16:32:56.615Z,62.22
2023-02-26T16:35:29.161Z,62.03
2023-02-26T16:37:57.414Z,62.06
2023-02-26T16:40:29.295Z,62.29
2023-02-26T16:43:06.444Z,61.90
2023-02-26T16:45:37.682Z,61.83
2023-02-26T16:48:13.686Z,62.16
2023-02-26T16:50:42.161Z,61.93
2023-02-26T16:53:21.968Z,62.33
2023-02-26T16:55:56.840Z,62.24
2023-02-26T16:58:26.027Z,62.07
2023-02-26T17:01:06.896Z,62.07
2023-02-26T17:03:36.468Z,61.97
2023-02-26T17:06:10.355Z,62.00
2023-02-26T17:08:54.153Z,61.91
2023-02-26T17:11:34.654Z,61.96
2023-02-26T17:14:14.744Z,61.93
2023-02-26T17:16:43.175Z,61.79
2023-02-26T17:19:11.448Z,61.48
2023-02-26T17:21:49.088Z,61.63
2023-02-26T17:24:31.580Z,61.29
2023-02-26T17:27:00.998Z,61.45
2023-02-26T17:29:39.288Z,61.37
2023-02-26T17:32:28.614Z,61.38
2023-02-26T17:34:56.895Z,61.37
2023-02-26T17:37:31.164Z,61.18
2023-02-26T17:40:00.657Z,61.15
2023-02-26T17:42:29.005Z,60.69
2023-02-26T17:44:58.478Z,60.85
2023-02-26T17:47:27.912Z,60.66
2023-02-26T17:49:56.264Z,60.56
2023-02-26T17:52:24.521Z,60.57
2023-02-26T17:54:52.728Z,60.60
2023-02-26T17:57:23.335Z,60.87
2023-02-26T17:59:51.607Z,60.82
2023-02-26T18:02:26.160Z,60.74
2023-02-26T18:04:55.109Z,60.76
2023-02-26T18:07:25.673Z,60.93
2023-02-26T18:09:53.945Z,60.85
2023-02-26T18:12:23.621Z,61.11
2023-02-26T18:14:52.092Z,60.97
2023-02-26T18:17:29.347Z,61.16
2023-02-26T18:19:57.746Z,60.94
2023-02-26T18:22:27.413Z,61.08
2023-02-26T18:24:56.702Z,61.01
2023-02-26T18:27:26.309Z,60.52
2023-02-26T18:29:55.492Z,60.96
2023-02-26T18:32:26.029Z,60.46
2023-02-26T18:34:54.621Z,60.59
2023-02-26T18:37:27.342Z,60.89
2023-02-26T18:39:56.648Z,61.04
2023-02-26T18:42:27.859Z,60.83
2023-02-26T18:44:57.527Z,60.94
2023-02-26T18:47:25.796Z,60.84
2023-02-26T18:49:54.057Z,60.59
2023-02-26T18:52:24.364Z,60.64
2023-02-26T18:54:52.571Z,61.05
2023-02-26T18:57:20.789Z,60.89
2023-02-26T18:59:49.823Z,61.21
2023-02-26T19:02:18.229Z,60.87
2023-02-26T19:04:47.324Z,61.11
2023-02-26T19:07:15.630Z,61.36
2023-02-26T19:09:44.998Z,61.16
2023-02-26T19:12:20.407Z,61.18
2023-02-26T19:14:50.448Z,61.13
2023-02-26T19:17:18.806Z,61.18
2023-02-26T19:19:47.065Z,61.31
2023-02-26T19:22:16.200Z,61.40
2023-02-26T19:24:45.037Z,61.35
2023-02-26T19:27:15.061Z,61.25
2023-02-26T19:29:44.509Z,61.21
2023-02-26T19:32:12.872Z,60.96
2023-02-26T19:34:41.287Z,60.68
2023-02-26T19:37:11.518Z,61.15
2023-02-26T19:39:40.170Z,61.21
2023-02-26T19:42:08.424Z,60.94
2023-02-26T19:44:36.829Z,61.17
2023-02-26T19:47:05.113Z,61.49
2023-02-26T19:49:33.741Z,61.20
2023-02-26T19:52:01.988Z,61.17
2023-02-26T19:54:31.160Z,61.38
2023-02-26T19:56:59.450Z,61.58
2023-02-26T19:59:27.736Z,61.43
2023-02-26T20:01:56.075Z,61.37
2023-02-26T20:04:24.363Z,61.60
2023-02-26T20:06:52.688Z,61.20
2023-02-26T20:09:21.109Z,61.41
2023-02-26T20:11:49.864Z,61.18
2023-02-26T20:14:19.378Z,60.93
2023-02-26T20:16:47.672Z,60.80
2023-02-26T20:19:16.045Z,61.01
2023-02-26T20:21:44.719Z,61.18
2023-02-26T20:24:13.010Z,61.11
2023-02-26T20:26:41.255Z,60.82
2023-02-26T20:29:09.816Z,60.84
2023-02-26T20:31:38.200Z,60.79
2023-02-26T20:34:07.502Z,60.64
2023-02-26T20:36:36.063Z,60.55
2023-02-26T20:39:04.482Z,60.47
2023-02-26T20:41:32.767Z,60.75
2023-02-26T20:44:00.990Z,60.42
2023-02-26T20:46:30.672Z,60.50
2023-02-26T20:49:00.595Z,60.41
2023-02-26T20:51:29.229Z,60.82
2023-02-26T20:53:57.564Z,59.95
2023-02-26T20:56:25.905Z,60.26
2023-02-26T20:58:54.125Z,60.28
2023-02-26T21:01:22.362Z,60.52
2023-02-26T21:03:50.635Z,60.50
2023-02-26T21:06:18.835Z,60.54
2023-02-26T21:08:47.104Z,60.48
2023-02-26T21:11:15.332Z,60.35
2023-02-26T21:13:45.368Z,60.54
2023-02-26T21:16:14.618Z,60.81
2023-02-26T21:18:42.811Z,60.80
2023-02-26T21:21:11.139Z,60.62
2023-02-26T21:23:39.365Z,60.29
2023-02-26T21:26:08.144Z,60.21
2023-02-26T21:28:36.738Z,60.83
2023-02-26T21:31:05.669Z,60.37
2023-02-26T21:33:34.053Z,60.63
2023-02-26T21:36:02.280Z,60.58
2023-02-26T21:38:30.515Z,60.40
2023-02-26T21:40:58.720Z,59.76
2023-02-26T21:43:27.040Z,59.65
2023-02-26T21:45:55.262Z,59.34
2023-02-26T21:48:23.532Z,59.74
2023-02-26T21:50:52.884Z,59.16
2023-02-26T21:53:21.156Z,58.57
2023-02-26T21:55:49.473Z,58.86
2023-02-26T21:58:17.743Z,58.84
2023-02-26T22:00:46.331Z,58.66
2023-02-26T22:03:14.564Z,59.03
2023-02-26T22:05:43.059Z,58.71
2023-02-26T22:08:11.442Z,58.78
2023-02-26T22:10:39.765Z,58.89
2023-02-26T22:13:08.065Z,59.17
2023-02-26T22:15:36.336Z,58.65
2023-02-26T22:18:04.912Z,59.50
2023-02-26T22:20:33.157Z,59.46
2023-02-26T22:23:01.522Z,59.22
2023-02-26T22:25:29.744Z,59.11
2023-02-26T22:27:58.743Z,59.76
2023-02-26T22:30:27.050Z,59.29
2023-02-26T22:32:55.505Z,59.44
2023-02-26T22:35:24.241Z,59.78
2023-02-26T22:37:52.494Z,59.50
2023-02-26T22:40:20.919Z,59.38
2023-02-26T22:42:49.513Z,59.39
2023-02-26T22:45:18.823Z,59.55
2023-02-26T22:47:49.010Z,59.24
2023-02-26T22:50:17.585Z,59.11
2023-02-26T22:52:46.488Z,59.32
2023-02-26T22:55:14.865Z,59.19
2023-02-26T22:57:43.247Z,59.46
2023-02-26T23:00:16.729Z,59.17
2023-02-26T23:02:45.424Z,59.50
2023-02-26T23:05:13.893Z,59.63
2023-02-26T23:07:42.545Z,59.61
2023-02-26T23:10:14.578Z,59.96
2023-02-26T23:12:44.176Z,59.91
2023-02-26T23:15:13.149Z,59.76
2023-02-26T23:17:43.964Z,59.89
2023-02-26T23:20:14.648Z,59.78
2023-02-26T23:22:45.356Z,59.72
2023-02-26T23:25:13.640Z,59.81
2023-02-26T23:27:42.055Z,60.13
2023-02-26T23:30:10.937Z,60.12
2023-02-26T23:32:39.336Z,59.99
2023-02-26T23:35:08.076Z,59.84
2023-02-26T23:37:36.314Z,60.14
2023-02-26T23:40:05.011Z,59.91
2023-02-26T23:42:33.223Z,60.07
2023-02-26T23:45:01.592Z,60.18
2023-02-26T23:47:29.810Z,60.61
2023-02-26T23:49:58.123Z,60.64
2023-02-26T23:52:26.576Z,60.83
2023-02-26T23:54:55.501Z,60.73
2023-02-26T23:57:23.864Z,60.73
2023-02-26T23:59:52.400Z,60.88
